createdAt,value
2023-01-28T00:00:58.731Z,29.00
2023-01-28T00:03:26.264Z,15.97
2023-01-28T00:05:55.118Z,14.33
2023-01-28T00:08:22.584Z,14.53
2023-01-28T00:10:50.083Z,22.57
2023-01-28T00:13:17.567Z,13.27
2023-01-28T00:15:46.459Z,15.50
2023-01-28T00:18:13.915Z,24.43
2023-01-28T00:20:41.373Z,30.77
2023-01-28T00:23:09.033Z,27.47
2023-01-28T00:25:36.478Z,12.10
2023-01-28T00:28:03.955Z,11.13
2023-01-28T00:30:31.433Z,8.17
2023-01-28T00:33:00.216Z,10.40
2023-01-28T00:35:27.667Z,11.60
2023-01-28T00:37:55.115Z,13.80
2023-01-28T00:40:22.565Z,11.97
2023-01-28T00:42:50.073Z,14.30
2023-01-28T00:45:18.088Z,12.67
2023-01-28T00:47:45.793Z,10.67
2023-01-28T00:50:15.059Z,13.17
2023-01-28T00:52:42.541Z,19.57
2023-01-28T00:55:10.491Z,17.13
2023-01-28T00:57:37.996Z,26.47
2023-01-28T01:00:06.940Z,36.80
2023-01-28T01:02:34.921Z,16.30
2023-01-28T01:05:02.489Z,15.87
2023-01-28T01:07:41.421Z,11.93
2023-01-28T01:10:10.468Z,13.83
2023-01-28T01:12:38.479Z,13.27
2023-01-28T01:15:08.809Z,13.83
2023-01-28T01:17:37.564Z,31.37
2023-01-28T01:20:05.919Z,37.13
2023-01-28T01:22:36.100Z,32.67
2023-01-28T01:25:04.707Z,27.73
2023-01-28T01:27:32.538Z,27.77
2023-01-28T01:30:00.362Z,17.90
2023-01-28T01:32:31.255Z,16.07
2023-01-28T01:34:59.152Z,17.10
2023-01-28T01:37:26.662Z,12.63
2023-01-28T01:39:55.962Z,13.17
2023-01-28T01:42:23.497Z,13.03
2023-01-28T01:44:57.499Z,13.00
2023-01-28T01:47:29.011Z,13.83
2023-01-28T01:49:57.347Z,20.03
2023-01-28T01:52:29.288Z,15.83
2023-01-28T01:55:02.663Z,16.00
2023-01-28T01:57:34.441Z,20.20
2023-01-28T02:00:06.769Z,16.50
2023-01-28T02:02:37.935Z,14.67
2023-01-28T02:05:06.560Z,19.17
2023-01-28T02:07:34.454Z,17.00
2023-01-28T02:10:04.197Z,13.87
2023-01-28T02:12:36.056Z,17.87
2023-01-28T02:15:07.089Z,14.57
2023-01-28T02:17:35.315Z,11.77
2023-01-28T02:20:05.336Z,17.03
2023-01-28T02:22:59.010Z,9.77
2023-01-28T02:25:48.368Z,11.33
2023-01-28T02:28:28.472Z,11.00
2023-01-28T02:31:02.932Z,15.60
2023-01-28T02:33:36.580Z,13.10
2023-01-28T02:36:14.699Z,11.87
2023-01-28T02:38:46.829Z,12.53
2023-01-28T02:41:22.433Z,13.07
2023-01-28T02:43:51.675Z,12.80
2023-01-28T02:46:40.847Z,13.47
2023-01-28T02:49:12.624Z,12.77
2023-01-28T02:51:59.344Z,14.53
2023-01-28T02:54:36.964Z,14.00
2023-01-28T02:57:17.579Z,13.80
2023-01-28T02:59:52.643Z,13.20
2023-01-28T03:02:28.614Z,14.37
2023-01-28T03:05:04.130Z,14.00
2023-01-28T03:07:34.528Z,14.50
2023-01-28T03:10:06.104Z,14.20
2023-01-28T03:12:54.297Z,15.17
2023-01-28T03:15:44.123Z,19.23
2023-01-28T03:18:34.342Z,18.03
2023-01-28T03:21:25.854Z,18.17
2023-01-28T03:24:18.161Z,15.37
2023-01-28T03:27:21.273Z,17.40
2023-01-28T03:30:09.259Z,22.37
2023-01-28T03:32:57.249Z,19.20
2023-01-28T03:35:46.740Z,18.30
2023-01-28T03:38:21.028Z,13.87
2023-01-28T03:40:53.008Z,15.33
2023-01-28T03:43:20.608Z,16.40
2023-01-28T03:45:51.253Z,15.80
2023-01-28T03:48:20.369Z,19.30
2023-01-28T03:50:48.106Z,18.43
2023-01-28T03:53:16.999Z,18.30
2023-01-28T03:55:45.219Z,20.43
2023-01-28T03:58:14.446Z,14.80
2023-01-28T04:00:43.395Z,15.60
2023-01-28T04:03:16.386Z,14.33
2023-01-28T04:05:46.104Z,15.97
2023-01-28T04:08:14.527Z,15.03
2023-01-28T04:10:43.812Z,15.17
2023-01-28T04:13:13.181Z,17.53
2023-01-28T04:15:41.030Z,18.53
2023-01-28T04:18:08.469Z,17.03
2023-01-28T04:20:36.058Z,17.57
2023-01-28T04:23:04.897Z,21.43
2023-01-28T04:25:32.649Z,19.73
2023-01-28T04:28:00.164Z,22.13
2023-01-28T04:30:28.161Z,23.07
2023-01-28T04:32:55.720Z,22.77
2023-01-28T04:35:23.192Z,22.37
2023-01-28T04:37:50.650Z,19.70
2023-01-28T04:40:19.793Z,22.20
2023-01-28T04:42:54.087Z,18.70
2023-01-28T04:45:21.682Z,22.40
2023-01-28T04:47:49.425Z,22.60
2023-01-28T04:50:17.951Z,24.50
2023-01-28T04:52:45.421Z,27.70
2023-01-28T04:55:13.228Z,19.83
2023-01-28T04:57:42.167Z,17.47
2023-01-28T05:00:10.646Z,22.00
2023-01-28T05:02:38.099Z,19.23
2023-01-28T05:05:08.871Z,19.17
2023-01-28T05:07:36.989Z,17.60
2023-01-28T05:10:05.220Z,17.10
2023-01-28T05:12:34.088Z,17.13
2023-01-28T05:15:03.368Z,17.17
2023-01-28T05:17:30.885Z,15.80
2023-01-28T05:19:58.396Z,16.50
2023-01-28T05:22:25.872Z,15.60
2023-01-28T05:24:53.340Z,18.20
2023-01-28T05:27:21.038Z,14.73
2023-01-28T05:29:48.527Z,16.63
2023-01-28T05:32:17.437Z,16.10
2023-01-28T05:34:44.986Z,19.77
2023-01-28T05:37:12.506Z,19.30
2023-01-28T05:39:40.090Z,15.60
2023-01-28T05:42:07.617Z,17.03
2023-01-28T05:44:35.064Z,15.67
2023-01-28T05:47:02.541Z,24.07
2023-01-28T05:49:31.368Z,18.93
2023-01-28T05:51:58.877Z,22.43
2023-01-28T05:54:26.323Z,34.93
2023-01-28T05:56:53.856Z,21.83
2023-01-28T05:59:21.320Z,26.37
2023-01-28T06:01:49.491Z,25.43
2023-01-28T06:04:18.781Z,19.33
2023-01-28T06:06:47.693Z,26.20
2023-01-28T06:09:15.357Z,20.33
2023-01-28T06:11:42.832Z,18.13
2023-01-28T06:14:10.297Z,24.43
2023-01-28T06:16:37.943Z,23.00
2023-01-28T06:19:05.412Z,30.70
2023-01-28T06:21:32.878Z,57.80
2023-01-28T06:24:01.690Z,55.80
2023-01-28T06:26:29.166Z,69.27
2023-01-28T06:28:56.620Z,69.43
2023-01-28T06:31:24.076Z,65.77
2023-01-28T06:33:51.535Z,63.97
2023-01-28T06:36:18.993Z,68.03
2023-01-28T06:38:46.431Z,60.93
2023-01-28T06:41:15.248Z,58.83
2023-01-28T06:43:42.706Z,57.77
2023-01-28T06:46:10.288Z,61.70
2023-01-28T06:48:37.762Z,60.43
2023-01-28T06:51:05.796Z,61.93
2023-01-28T06:53:33.270Z,47.50
2023-01-28T06:56:00.703Z,51.07
2023-01-28T06:58:29.524Z,46.77
2023-01-28T07:00:56.975Z,53.67
2023-01-28T07:03:24.432Z,46.03
2023-01-28T07:05:51.900Z,53.70
2023-01-28T07:08:19.380Z,51.93
2023-01-28T07:10:46.932Z,57.70
2023-01-28T07:13:14.383Z,58.73
2023-01-28T07:15:43.155Z,55.23
2023-01-28T07:18:10.617Z,57.23
2023-01-28T07:20:38.071Z,59.37
2023-01-28T07:23:05.611Z,53.17
2023-01-28T07:25:33.059Z,67.70
2023-01-28T07:28:00.585Z,58.90
2023-01-28T07:30:28.139Z,63.27
2023-01-28T07:32:58.997Z,56.23
2023-01-28T07:35:27.726Z,63.07
2023-01-28T07:37:56.047Z,68.73
2023-01-28T07:40:24.327Z,52.67
2023-01-28T07:42:52.565Z,66.93
2023-01-28T07:45:20.047Z,59.70
2023-01-28T07:47:54.665Z,53.00
2023-01-28T07:50:23.673Z,49.70
2023-01-28T07:52:51.186Z,53.87
2023-01-28T07:55:19.102Z,59.90
2023-01-28T07:57:51.484Z,51.53
2023-01-28T08:00:20.193Z,67.53
2023-01-28T08:02:48.835Z,66.33
2023-01-28T08:05:18.100Z,50.87
2023-01-28T08:07:48.463Z,59.90
2023-01-28T08:10:17.183Z,54.60
2023-01-28T08:12:52.348Z,66.43
2023-01-28T08:15:19.972Z,63.47
2023-01-28T08:17:47.437Z,58.03
2023-01-28T08:20:15.859Z,45.23
2023-01-28T08:22:43.597Z,63.03
2023-01-28T08:25:12.429Z,66.23
2023-01-28T08:27:39.935Z,63.87
2023-01-28T08:30:09.161Z,59.87
2023-01-28T08:32:37.165Z,58.80
2023-01-28T08:35:04.974Z,63.60
2023-01-28T08:37:32.438Z,67.80
2023-01-28T08:39:59.895Z,60.43
2023-01-28T08:42:28.689Z,64.87
2023-01-28T08:44:56.206Z,63.30
2023-01-28T08:47:23.638Z,60.60
2023-01-28T08:49:51.081Z,55.90
2023-01-28T08:52:18.551Z,49.80
2023-01-28T08:54:45.989Z,55.83
2023-01-28T08:57:13.451Z,42.10
2023-01-28T08:59:45.037Z,30.17
2023-01-28T09:02:30.394Z,18.27
2023-01-28T09:04:59.151Z,23.47
2023-01-28T09:07:26.623Z,28.37
2023-01-28T09:09:54.092Z,51.83
2023-01-28T09:12:21.579Z,48.30
2023-01-28T09:14:50.408Z,21.97
2023-01-28T09:17:17.912Z,40.77
2023-01-28T09:19:45.422Z,20.53
2023-01-28T09:22:13.057Z,37.00
2023-01-28T09:24:40.493Z,62.27
2023-01-28T09:27:08.056Z,30.23
2023-01-28T09:29:35.925Z,41.83
2023-01-28T09:32:05.127Z,29.77
2023-01-28T09:34:32.754Z,42.30
2023-01-28T09:37:00.229Z,36.43
2023-01-28T09:39:28.453Z,33.47
2023-01-28T09:42:09.713Z,36.30
2023-01-28T09:44:54.058Z,35.20
2023-01-28T09:47:27.649Z,31.60
2023-01-28T09:49:59.153Z,32.37
2023-01-28T09:52:27.778Z,25.20
2023-01-28T09:55:00.796Z,28.07
2023-01-28T09:57:37.644Z,24.57
2023-01-28T10:00:15.701Z,18.30
2023-01-28T10:02:59.829Z,21.10
2023-01-28T10:05:35.528Z,15.97
2023-01-28T10:08:15.190Z,16.03
2023-01-28T10:10:47.936Z,18.60
2023-01-28T10:13:25.113Z,17.67
2023-01-28T10:16:06.789Z,18.40
2023-01-28T10:18:43.047Z,19.77
2023-01-28T10:21:16.435Z,20.70
2023-01-28T10:23:53.918Z,30.37
2023-01-28T10:26:26.733Z,40.00
2023-01-28T10:28:57.959Z,22.63
2023-01-28T10:31:33.014Z,18.77
2023-01-28T10:34:04.355Z,28.13
2023-01-28T10:36:31.854Z,23.57
2023-01-28T10:38:59.698Z,21.30
2023-01-28T10:41:27.222Z,25.07
2023-01-28T10:43:54.715Z,25.63
2023-01-28T10:46:27.945Z,22.73
2023-01-28T10:49:00.798Z,21.77
2023-01-28T10:51:37.159Z,25.90
2023-01-28T10:54:05.962Z,26.90
2023-01-28T10:56:35.728Z,28.00
2023-01-28T10:59:05.266Z,26.70
2023-01-28T11:01:45.229Z,11.30
2023-01-28T11:04:19.717Z,16.77
2023-01-28T11:06:57.329Z,24.00
2023-01-28T11:09:26.662Z,22.63
2023-01-28T11:11:54.248Z,22.67
2023-01-28T11:14:24.067Z,25.50
2023-01-28T11:16:53.949Z,20.13
2023-01-28T11:19:26.838Z,11.23
2023-01-28T11:21:59.461Z,17.50
2023-01-28T11:24:31.300Z,19.37
2023-01-28T11:27:01.779Z,21.47
2023-01-28T11:29:32.823Z,12.80
2023-01-28T11:32:01.163Z,15.80
2023-01-28T11:34:30.505Z,11.10
2023-01-28T11:37:05.729Z,10.97
2023-01-28T11:39:33.323Z,12.87
2023-01-28T11:42:16.948Z,10.40
2023-01-28T11:44:44.956Z,10.57
2023-01-28T11:47:25.646Z,11.63
2023-01-28T11:50:06.826Z,11.17
2023-01-28T11:53:06.045Z,15.60
2023-01-28T11:55:59.515Z,28.03
2023-01-28T11:58:38.673Z,13.97
2023-01-28T12:01:13.415Z,15.60
2023-01-28T12:03:56.088Z,14.17
2023-01-28T12:06:35.814Z,16.27
2023-01-28T12:09:15.144Z,11.67
2023-01-28T12:12:14.857Z,11.70
2023-01-28T12:15:08.278Z,11.70
2023-01-28T12:17:51.634Z,13.47
2023-01-28T12:20:26.945Z,9.87
2023-01-28T12:23:12.094Z,13.20
2023-01-28T12:25:59.521Z,15.27
2023-01-28T12:28:40.105Z,14.67
2023-01-28T12:31:23.965Z,15.57
2023-01-28T12:34:19.386Z,12.40
2023-01-28T12:36:57.058Z,13.37
2023-01-28T12:39:35.068Z,13.57
2023-01-28T12:42:11.318Z,13.03
2023-01-28T12:44:44.361Z,13.77
2023-01-28T12:47:16.920Z,13.63
2023-01-28T12:49:48.828Z,8.77
2023-01-28T12:52:23.951Z,10.33
2023-01-28T12:54:59.339Z,7.23
2023-01-28T12:57:30.515Z,8.97
2023-01-28T13:00:16.930Z,7.87
2023-01-28T13:02:51.236Z,6.90
2023-01-28T13:05:23.876Z,6.63
2023-01-28T13:07:57.651Z,5.47
2023-01-28T13:10:29.750Z,5.33
2023-01-28T13:13:00.019Z,7.40
2023-01-28T13:15:27.514Z,5.90
2023-01-28T13:17:56.974Z,6.63
2023-01-28T13:20:37.517Z,5.40
2023-01-28T13:23:07.572Z,6.47
2023-01-28T13:25:35.794Z,5.70
2023-01-28T13:28:06.670Z,6.97
2023-01-28T13:30:37.142Z,8.30
2023-01-28T13:33:06.532Z,5.90
2023-01-28T13:35:36.731Z,6.50
2023-01-28T13:38:10.141Z,6.80
2023-01-28T13:40:40.489Z,6.47
2023-01-28T13:43:28.814Z,7.33
2023-01-28T13:45:59.484Z,6.70
2023-01-28T13:48:32.765Z,6.10
2023-01-28T13:51:01.262Z,6.70
2023-01-28T13:53:41.057Z,6.13
2023-01-28T13:56:18.899Z,6.33
2023-01-28T13:59:11.402Z,6.63
2023-01-28T14:02:17.696Z,6.97
2023-01-28T14:05:09.514Z,7.03
2023-01-28T14:08:10.623Z,6.43
2023-01-28T14:10:51.075Z,6.43
2023-01-28T14:13:32.160Z,5.70
2023-01-28T14:16:20.485Z,8.10
2023-01-28T14:18:49.880Z,7.77
2023-01-28T14:21:20.937Z,7.17
2023-01-28T14:23:50.786Z,7.00
2023-01-28T14:26:32.739Z,7.63
2023-01-28T14:29:13.981Z,9.13
2023-01-28T14:31:43.096Z,7.10
2023-01-28T14:34:20.041Z,6.87
2023-01-28T14:36:49.793Z,6.33
2023-01-28T14:39:19.123Z,6.50
2023-01-28T14:41:49.529Z,6.70
2023-01-28T14:44:28.523Z,5.97
2023-01-28T14:47:11.409Z,6.03
2023-01-28T14:49:49.837Z,7.23
2023-01-28T14:52:44.156Z,5.57
2023-01-28T14:55:27.369Z,4.87
2023-01-28T14:57:57.716Z,5.87
2023-01-28T15:00:27.735Z,6.10
2023-01-28T15:02:56.641Z,5.50
2023-01-28T15:05:25.766Z,5.07
2023-01-28T15:07:53.948Z,4.70
2023-01-28T15:10:25.451Z,5.10
2023-01-28T15:12:56.247Z,5.80
2023-01-28T15:15:32.276Z,5.60
2023-01-28T15:18:04.207Z,5.30
2023-01-28T15:20:32.484Z,4.60
2023-01-28T15:23:02.669Z,4.80
2023-01-28T15:25:31.103Z,5.10
2023-01-28T15:28:02.324Z,4.70
2023-01-28T15:30:32.073Z,5.60
2023-01-28T15:33:03.482Z,4.80
2023-01-28T15:35:31.302Z,4.30
2023-01-28T15:37:58.906Z,5.03
2023-01-28T15:40:26.914Z,4.30
2023-01-28T15:42:58.243Z,4.53
2023-01-28T15:45:29.186Z,5.00
2023-01-28T15:48:08.791Z,4.40
2023-01-28T15:50:36.453Z,4.50
2023-01-28T15:53:10.999Z,4.13
2023-01-28T15:55:40.813Z,4.57
2023-01-28T15:58:18.898Z,4.10
2023-01-28T16:00:47.254Z,4.20
2023-01-28T16:03:21.555Z,3.87
2023-01-28T16:05:59.495Z,4.57
2023-01-28T16:08:33.278Z,4.67
2023-01-28T16:11:00.887Z,5.07
2023-01-28T16:13:29.908Z,4.10
2023-01-28T16:15:58.711Z,4.90
2023-01-28T16:18:39.678Z,4.30
2023-01-28T16:21:10.441Z,5.00
2023-01-28T16:23:39.678Z,5.00
2023-01-28T16:26:22.184Z,5.80
2023-01-28T16:28:49.857Z,5.17
2023-01-28T16:31:17.512Z,5.70
2023-01-28T16:33:46.659Z,4.63
2023-01-28T16:36:15.966Z,4.53
2023-01-28T16:38:43.499Z,4.47
2023-01-28T16:41:16.732Z,4.30
2023-01-28T16:43:44.228Z,4.40
2023-01-28T16:46:13.371Z,5.20
2023-01-28T16:48:40.849Z,4.43
2023-01-28T16:51:17.020Z,5.90
2023-01-28T16:53:45.865Z,5.23
2023-01-28T16:56:35.803Z,4.67
2023-01-28T16:59:03.386Z,4.40
2023-01-28T17:01:30.840Z,3.87
2023-01-28T17:03:58.476Z,3.90
2023-01-28T17:06:27.437Z,6.63
2023-01-28T17:08:54.887Z,6.30
2023-01-28T17:11:22.349Z,4.57
2023-01-28T17:13:49.802Z,6.03
2023-01-28T17:16:17.747Z,6.93
2023-01-28T17:18:46.905Z,10.43
2023-01-28T17:21:16.031Z,8.13
2023-01-28T17:23:45.350Z,6.90
2023-01-28T17:26:15.037Z,4.07
2023-01-28T17:28:42.956Z,8.00
2023-01-28T17:31:12.895Z,8.20
2023-01-28T17:33:40.840Z,8.07
2023-01-28T17:36:09.270Z,8.37
2023-01-28T17:38:36.766Z,7.07
2023-01-28T17:41:07.474Z,6.20
2023-01-28T17:43:35.279Z,4.40
2023-01-28T17:46:11.428Z,5.57
2023-01-28T17:48:38.955Z,4.77
2023-01-28T17:51:06.851Z,5.30
2023-01-28T17:53:34.315Z,4.47
2023-01-28T17:56:01.908Z,6.17
2023-01-28T17:58:30.856Z,5.20
2023-01-28T18:00:58.397Z,6.50
2023-01-28T18:03:25.882Z,4.67
2023-01-28T18:06:00.328Z,4.67
2023-01-28T18:08:28.086Z,5.50
2023-01-28T18:10:56.065Z,4.50
2023-01-28T18:13:23.655Z,3.97
2023-01-28T18:15:52.461Z,4.37
2023-01-28T18:18:19.903Z,5.83
2023-01-28T18:20:47.352Z,4.30
2023-01-28T18:23:14.806Z,4.20
2023-01-28T18:25:42.267Z,4.67
2023-01-28T18:28:09.707Z,3.90
2023-01-28T18:30:37.214Z,4.50
2023-01-28T18:33:06.085Z,6.37
2023-01-28T18:35:33.596Z,4.17
2023-01-28T18:38:02.510Z,4.43
2023-01-28T18:40:30.071Z,5.10
2023-01-28T18:42:57.549Z,5.57
2023-01-28T18:45:25.021Z,4.27
2023-01-28T18:47:52.484Z,4.53
2023-01-28T18:50:21.348Z,8.10
2023-01-28T18:52:48.798Z,6.77
2023-01-28T18:55:16.581Z,5.43
2023-01-28T18:57:44.172Z,4.97
2023-01-28T19:00:12.700Z,4.90
2023-01-28T19:02:40.157Z,4.53
2023-01-28T19:05:08.006Z,4.53
2023-01-28T19:07:36.803Z,10.13
2023-01-28T19:10:04.753Z,6.00
2023-01-28T19:12:32.218Z,7.83
2023-01-28T19:14:59.675Z,8.83
2023-01-28T19:17:27.131Z,5.87
2023-01-28T19:19:54.583Z,5.60
2023-01-28T19:22:22.019Z,4.77
2023-01-28T19:24:50.831Z,5.70
2023-01-28T19:27:18.292Z,4.60
2023-01-28T19:29:45.727Z,4.90
2023-01-28T19:32:13.166Z,4.73
2023-01-28T19:34:40.648Z,4.60
2023-01-28T19:37:08.384Z,6.33
2023-01-28T19:39:36.235Z,5.87
2023-01-28T19:42:05.029Z,5.50
2023-01-28T19:44:34.056Z,4.53
2023-01-28T19:47:02.219Z,4.97
2023-01-28T19:49:29.792Z,4.37
2023-01-28T19:51:57.278Z,5.00
2023-01-28T19:54:24.782Z,5.20
2023-01-28T19:56:52.422Z,5.03
2023-01-28T19:59:21.247Z,6.80
2023-01-28T20:01:48.844Z,5.40
2023-01-28T20:04:16.373Z,5.07
2023-01-28T20:06:43.922Z,4.57
2023-01-28T20:09:16.005Z,4.50
2023-01-28T20:11:43.669Z,4.70
2023-01-28T20:14:29.124Z,4.30
2023-01-28T20:16:56.660Z,5.87
2023-01-28T20:19:24.169Z,8.07
2023-01-28T20:21:52.692Z,5.63
2023-01-28T20:24:20.243Z,4.90
2023-01-28T20:26:47.824Z,5.00
2023-01-28T20:29:18.415Z,6.00
2023-01-28T20:32:00.878Z,4.90
2023-01-28T20:34:35.157Z,5.30
2023-01-28T20:37:03.217Z,6.20
2023-01-28T20:39:30.758Z,7.13
2023-01-28T20:41:58.340Z,6.40
2023-01-28T20:44:26.641Z,6.77
2023-01-28T20:46:55.444Z,5.73
2023-01-28T20:49:22.927Z,4.70
2023-01-28T20:51:50.419Z,5.10
2023-01-28T20:54:18.667Z,8.37
2023-01-28T20:56:46.191Z,5.87
2023-01-28T20:59:13.852Z,4.73
2023-01-28T21:01:41.602Z,4.90
2023-01-28T21:04:10.922Z,5.43
2023-01-28T21:06:39.796Z,4.70
2023-01-28T21:09:07.932Z,5.20
2023-01-28T21:11:35.565Z,5.90
2023-01-28T21:14:03.095Z,4.87
2023-01-28T21:16:30.574Z,5.77
2023-01-28T21:18:58.071Z,6.30
2023-01-28T21:21:29.163Z,5.53
2023-01-28T21:23:59.735Z,5.23
2023-01-28T21:26:27.733Z,5.53
2023-01-28T21:28:56.014Z,6.17
2023-01-28T21:31:26.128Z,5.40
2023-01-28T21:33:55.775Z,5.80
2023-01-28T21:36:24.578Z,6.33
2023-01-28T21:38:55.031Z,5.73
2023-01-28T21:41:22.678Z,6.47
2023-01-28T21:43:52.047Z,6.70
2023-01-28T21:46:19.659Z,5.63
2023-01-28T21:48:47.865Z,5.40
2023-01-28T21:51:33.008Z,5.80
2023-01-28T21:54:02.597Z,5.90
2023-01-28T21:56:30.063Z,5.90
2023-01-28T21:59:15.136Z,7.80
2023-01-28T22:01:44.049Z,6.50
2023-01-28T22:04:11.589Z,5.70
2023-01-28T22:06:39.084Z,5.50
2023-01-28T22:09:11.606Z,5.83
2023-01-28T22:11:39.809Z,6.70
2023-01-28T22:14:07.857Z,6.03
2023-01-28T22:16:35.725Z,6.47
2023-01-28T22:19:03.234Z,6.53
2023-01-28T22:21:31.111Z,6.50
2023-01-28T22:23:58.907Z,5.50
2023-01-28T22:26:27.804Z,6.17
2023-01-28T22:28:55.324Z,5.73
2023-01-28T22:31:23.018Z,5.93
2023-01-28T22:33:50.545Z,5.83
2023-01-28T22:36:18.026Z,6.03
2023-01-28T22:38:46.571Z,6.63
2023-01-28T22:41:18.931Z,5.73
2023-01-28T22:43:47.999Z,6.37
2023-01-28T22:46:15.893Z,6.13
2023-01-28T22:48:44.205Z,5.90
2023-01-28T22:51:16.434Z,6.53
2023-01-28T22:53:44.612Z,6.53
2023-01-28T22:56:12.343Z,5.60
2023-01-28T22:58:39.928Z,5.13
2023-01-28T23:01:09.009Z,5.87
2023-01-28T23:03:37.045Z,5.57
2023-01-28T23:06:05.990Z,5.87
2023-01-28T23:08:34.282Z,5.77
2023-01-28T23:11:02.868Z,5.93
2023-01-28T23:13:52.806Z,5.73
2023-01-28T23:16:39.402Z,5.57
2023-01-28T23:19:24.717Z,5.40
2023-01-28T23:22:11.975Z,4.63
2023-01-28T23:24:39.480Z,5.10
2023-01-28T23:27:06.953Z,5.43
2023-01-28T23:29:34.426Z,4.63
2023-01-28T23:32:06.307Z,6.07
2023-01-28T23:34:35.792Z,6.17
2023-01-28T23:37:04.170Z,6.00
2023-01-28T23:39:31.653Z,5.90
2023-01-28T23:41:59.159Z,5.47
2023-01-28T23:44:27.631Z,6.43
2023-01-28T23:46:56.388Z,6.37
2023-01-28T23:49:25.275Z,6.00
2023-01-28T23:51:52.741Z,8.00
2023-01-28T23:54:20.278Z,7.90
2023-01-28T23:56:47.855Z,6.97
2023-01-28T23:59:15.333Z,7.27
